createdAt,value
2018-01-13T00:00:16.859Z,73.40
2018-01-13T00:02:44.454Z,73.60
2018-01-13T00:05:11.952Z,73.80
2018-01-13T00:07:41.080Z,73.90
2018-01-13T00:10:08.630Z,73.40
2018-01-13T00:12:36.190Z,73.50
2018-01-13T00:15:03.726Z,72.80
2018-01-13T00:17:31.267Z,73.30
2018-01-13T00:19:58.828Z,73.10
2018-01-13T00:22:38.085Z,72.40
2018-01-13T00:25:05.705Z,72.90
2018-01-13T00:27:33.244Z,72.60
2018-01-13T00:30:00.787Z,72.70
2018-01-13T00:32:28.331Z,72.00
2018-01-13T00:34:55.846Z,72.20
2018-01-13T00:37:23.389Z,72.40
2018-01-13T00:39:50.925Z,72.90
2018-01-13T00:42:19.239Z,73.80
2018-01-13T00:44:47.555Z,73.40
2018-01-13T00:47:15.849Z,73.50
2018-01-13T00:49:44.161Z,72.90
2018-01-13T00:52:12.478Z,73.80
2018-01-13T00:54:39.993Z,73.80
2018-01-13T00:57:07.547Z,74.20
2018-01-13T00:59:35.075Z,74.00
2018-01-13T01:02:02.595Z,73.30
2018-01-13T01:04:30.899Z,73.30
2018-01-13T01:06:59.282Z,73.50
2018-01-13T01:09:26.813Z,73.50
2018-01-13T01:11:54.331Z,73.40
2018-01-13T01:14:21.845Z,73.30
2018-01-13T01:16:50.214Z,73.40
2018-01-13T01:19:17.900Z,73.20
2018-01-13T01:21:45.437Z,73.00
2018-01-13T01:24:13.831Z,72.40
2018-01-13T01:26:41.345Z,72.40
2018-01-13T01:29:09.647Z,72.20
2018-01-13T01:31:37.945Z,71.90
2018-01-13T01:34:06.311Z,71.20
2018-01-13T01:36:34.605Z,71.50
2018-01-13T01:39:02.204Z,71.50
2018-01-13T01:41:29.729Z,71.50
2018-01-13T01:43:57.260Z,71.60
2018-01-13T01:46:24.813Z,72.40
2018-01-13T01:48:53.194Z,72.40
2018-01-13T01:51:21.560Z,72.70
2018-01-13T01:53:49.086Z,72.70
2018-01-13T01:56:16.670Z,73.20
2018-01-13T01:58:44.248Z,73.40
2018-01-13T02:01:11.796Z,74.00
2018-01-13T02:03:39.326Z,74.30
2018-01-13T02:06:06.956Z,74.40
2018-01-13T02:08:35.339Z,74.50
2018-01-13T02:11:03.638Z,74.90
2018-01-13T02:13:31.192Z,75.00
2018-01-13T02:15:58.721Z,75.50
2018-01-13T02:18:27.021Z,75.60
2018-01-13T02:20:54.595Z,75.60
2018-01-13T02:23:22.971Z,75.80
2018-01-13T02:25:50.521Z,76.50
2018-01-13T02:28:18.091Z,76.10
2018-01-13T02:30:45.647Z,75.40
2018-01-13T02:33:14.083Z,75.80
2018-01-13T02:35:41.608Z,75.80
2018-01-13T02:38:09.905Z,74.90
2018-01-13T02:40:37.472Z,74.90
2018-01-13T02:43:04.992Z,75.20
2018-01-13T02:45:32.552Z,74.70
2018-01-13T02:48:00.098Z,75.60
2018-01-13T02:50:27.659Z,76.10
2018-01-13T02:52:55.189Z,75.10
2018-01-13T02:55:22.707Z,75.40
2018-01-13T02:57:51.008Z,75.60
2018-01-13T03:00:19.400Z,75.30
2018-01-13T03:02:46.961Z,75.30
2018-01-13T03:05:14.518Z,76.20
2018-01-13T03:07:42.080Z,76.30
2018-01-13T03:10:10.393Z,76.80
2018-01-13T03:12:37.929Z,76.80
2018-01-13T03:15:05.590Z,76.70
2018-01-13T03:17:33.115Z,76.50
2018-01-13T03:20:00.639Z,76.10
2018-01-13T03:22:28.220Z,75.80
2018-01-13T03:24:55.731Z,75.60
2018-01-13T03:27:23.312Z,75.40
2018-01-13T03:29:50.868Z,75.70
2018-01-13T03:32:19.180Z,75.30
2018-01-13T03:34:47.450Z,75.10
2018-01-13T03:37:15.735Z,75.70
2018-01-13T03:39:43.299Z,75.70
2018-01-13T03:42:10.833Z,75.50
2018-01-13T03:44:39.146Z,76.00
2018-01-13T03:47:07.447Z,76.10
2018-01-13T03:49:35.760Z,76.20
2018-01-13T03:52:04.051Z,76.20
2018-01-13T03:54:31.671Z,76.20
2018-01-13T03:56:59.956Z,76.20
2018-01-13T03:59:28.284Z,76.20
2018-01-13T04:01:56.592Z,76.00
2018-01-13T04:04:24.119Z,76.00
2018-01-13T04:06:51.672Z,75.30
2018-01-13T04:09:19.954Z,75.70
2018-01-13T04:11:48.245Z,75.80
2018-01-13T04:14:15.878Z,75.80
2018-01-13T04:16:43.550Z,75.80
2018-01-13T04:19:11.136Z,76.30
2018-01-13T04:21:39.464Z,75.30
2018-01-13T04:24:07.046Z,75.30
2018-01-13T04:26:34.599Z,76.60
2018-01-13T04:29:02.221Z,77.10
2018-01-13T04:31:30.561Z,77.50
2018-01-13T04:33:58.867Z,77.40
2018-01-13T04:36:27.194Z,76.70
2018-01-13T04:38:55.493Z,76.00
2018-01-13T04:41:23.814Z,75.60
2018-01-13T04:43:51.353Z,75.60
2018-01-13T04:46:19.725Z,75.50
2018-01-13T04:48:47.253Z,75.40
2018-01-13T04:51:15.537Z,74.20
2018-01-13T04:53:43.110Z,74.30
2018-01-13T04:56:10.633Z,74.60
2018-01-13T04:58:38.935Z,74.60
2018-01-13T05:01:06.530Z,74.50
2018-01-13T05:03:34.059Z,75.00
2018-01-13T05:06:02.370Z,74.10
2018-01-13T05:08:30.646Z,75.30
2018-01-13T05:10:58.158Z,75.40
2018-01-13T05:13:26.490Z,76.60
2018-01-13T05:15:54.019Z,76.60
2018-01-13T05:18:21.656Z,76.40
2018-01-13T05:20:49.199Z,76.70
2018-01-13T05:23:16.860Z,76.60
2018-01-13T05:25:44.400Z,76.40
2018-01-13T05:28:12.681Z,77.00
2018-01-13T05:30:40.224Z,77.10
2018-01-13T05:33:07.780Z,77.40
2018-01-13T05:35:36.078Z,77.70
2018-01-13T05:38:04.381Z,77.90
2018-01-13T05:40:32.735Z,77.70
2018-01-13T05:43:01.021Z,77.50
2018-01-13T05:45:28.709Z,77.70
2018-01-13T05:47:56.987Z,77.10
2018-01-13T05:50:24.571Z,77.10
2018-01-13T05:52:52.099Z,77.20
2018-01-13T05:55:20.402Z,77.70
2018-01-13T05:57:47.981Z,77.70
2018-01-13T06:00:15.520Z,77.90
2018-01-13T06:02:43.070Z,77.60
2018-01-13T06:05:10.670Z,77.40
2018-01-13T06:07:38.973Z,77.60
2018-01-13T06:10:07.294Z,77.30
2018-01-13T06:12:34.814Z,77.30
2018-01-13T06:15:02.313Z,77.20
2018-01-13T06:17:29.972Z,76.70
2018-01-13T06:19:57.494Z,76.80
2018-01-13T06:22:24.992Z,77.10
2018-01-13T06:24:52.563Z,77.40
2018-01-13T06:27:20.074Z,77.30
2018-01-13T06:29:48.411Z,76.80
2018-01-13T06:32:15.977Z,76.80
2018-01-13T06:34:43.697Z,76.40
2018-01-13T06:37:12.013Z,77.70
2018-01-13T06:39:39.574Z,77.80
2018-01-13T06:42:07.896Z,76.40
2018-01-13T06:44:36.240Z,76.50
2018-01-13T06:47:03.780Z,76.50
2018-01-13T06:49:32.099Z,75.30
2018-01-13T06:51:59.635Z,75.40
2018-01-13T06:54:27.211Z,75.40
2018-01-13T06:56:54.756Z,75.60
2018-01-13T06:59:22.301Z,75.50
2018-01-13T07:01:49.923Z,74.90
2018-01-13T07:04:18.299Z,75.80
2018-01-13T07:06:45.878Z,75.80
2018-01-13T07:09:14.357Z,76.70
2018-01-13T07:11:42.043Z,76.60
2018-01-13T07:14:09.573Z,77.20
2018-01-13T07:16:37.115Z,77.10
2018-01-13T07:19:05.447Z,77.20
2018-01-13T07:21:33.011Z,77.30
2018-01-13T07:24:00.574Z,77.20
2018-01-13T07:26:28.143Z,77.00
2018-01-13T07:28:56.551Z,77.70
2018-01-13T07:31:24.082Z,77.70
2018-01-13T07:33:51.860Z,77.80
2018-01-13T07:36:19.434Z,78.00
2018-01-13T07:38:47.840Z,77.80
2018-01-13T07:41:15.486Z,77.80
2018-01-13T07:43:42.999Z,77.60
2018-01-13T07:46:10.534Z,76.50
2018-01-13T07:48:38.828Z,76.70
2018-01-13T07:51:07.151Z,75.10
2018-01-13T07:53:35.472Z,74.80
2018-01-13T07:56:03.127Z,74.90
2018-01-13T07:58:31.470Z,74.70
2018-01-13T08:00:59.007Z,74.70
2018-01-13T08:03:28.175Z,75.20
2018-01-13T08:05:56.495Z,75.20
2018-01-13T08:08:24.028Z,75.20
2018-01-13T08:10:51.579Z,74.20
2018-01-13T08:13:19.120Z,74.50
2018-01-13T08:15:46.665Z,74.90
2018-01-13T08:18:14.188Z,74.40
2018-01-13T08:20:42.490Z,73.80
2018-01-13T08:23:10.119Z,73.80
2018-01-13T08:25:38.432Z,72.70
2018-01-13T08:28:06.021Z,72.80
2018-01-13T08:30:33.564Z,73.30
2018-01-13T08:33:01.182Z,73.40
2018-01-13T08:35:28.743Z,72.40
2018-01-13T08:37:57.044Z,73.00
2018-01-13T08:40:24.593Z,73.30
2018-01-13T08:42:52.234Z,73.30
2018-01-13T08:45:19.787Z,73.00
2018-01-13T08:47:48.148Z,73.10
2018-01-13T08:50:15.771Z,73.30
2018-01-13T08:52:44.115Z,73.10
2018-01-13T08:55:11.681Z,73.10
2018-01-13T08:57:39.255Z,73.70
2018-01-13T09:00:06.783Z,73.00
2018-01-13T09:02:34.812Z,73.20
2018-01-13T09:05:03.136Z,73.00
2018-01-13T09:07:30.678Z,73.10
2018-01-13T09:09:58.401Z,73.50
2018-01-13T09:12:26.719Z,73.80
2018-01-13T09:14:54.266Z,73.80
2018-01-13T09:17:22.676Z,73.80
2018-01-13T09:19:50.991Z,73.90
2018-01-13T09:22:19.313Z,74.30
2018-01-13T09:24:46.872Z,74.40
2018-01-13T09:27:14.480Z,73.40
2018-01-13T09:29:42.026Z,73.30
2018-01-13T09:32:09.565Z,73.10
2018-01-13T09:34:37.117Z,73.20
2018-01-13T09:37:05.453Z,73.40
2018-01-13T09:39:33.006Z,73.50
2018-01-13T09:42:01.642Z,73.10
2018-01-13T09:44:29.175Z,73.20
2018-01-13T09:46:56.695Z,73.40
2018-01-13T09:49:25.014Z,73.10
2018-01-13T09:51:52.574Z,73.20
2018-01-13T09:54:21.060Z,73.40
2018-01-13T09:56:48.584Z,73.40
2018-01-13T09:59:16.937Z,73.40
2018-01-13T10:01:44.468Z,73.50
2018-01-13T10:04:11.988Z,73.90
2018-01-13T10:06:39.544Z,73.60
2018-01-13T10:09:07.092Z,73.80
2018-01-13T10:11:34.642Z,74.10
2018-01-13T10:14:02.159Z,74.80
2018-01-13T10:16:29.823Z,74.70
2018-01-13T10:18:57.377Z,74.40
2018-01-13T10:21:25.027Z,74.40
2018-01-13T10:23:52.544Z,75.50
2018-01-13T10:26:20.056Z,75.50
2018-01-13T10:28:47.602Z,74.70
2018-01-13T10:31:15.128Z,74.30
2018-01-13T10:33:42.728Z,74.60
2018-01-13T10:36:11.068Z,74.40
2018-01-13T10:38:39.360Z,74.70
2018-01-13T10:41:07.674Z,74.50
2018-01-13T10:43:36.943Z,74.40
2018-01-13T10:46:05.387Z,74.50
2018-01-13T10:48:32.955Z,74.40
2018-01-13T10:51:00.522Z,74.40
2018-01-13T10:53:28.302Z,74.40
2018-01-13T10:55:56.645Z,74.90
2018-01-13T10:58:24.181Z,74.10
2018-01-13T11:00:52.497Z,74.80
2018-01-13T11:03:20.126Z,74.70
2018-01-13T11:05:48.583Z,74.60
2018-01-13T11:08:16.146Z,74.70
2018-01-13T11:10:44.537Z,74.30
2018-01-13T11:13:12.870Z,74.20
2018-01-13T11:15:40.915Z,74.20
2018-01-13T11:18:08.440Z,74.40
2018-01-13T11:20:36.186Z,75.20
2018-01-13T11:23:03.802Z,75.10
2018-01-13T11:25:32.233Z,74.90
2018-01-13T11:28:00.698Z,74.80
2018-01-13T11:30:28.263Z,75.00
2018-01-13T11:32:55.845Z,74.70
2018-01-13T11:35:23.445Z,74.30
2018-01-13T11:37:51.794Z,74.80
2018-01-13T11:40:19.418Z,74.80
2018-01-13T11:42:47.141Z,74.70
2018-01-13T11:45:15.500Z,74.00
2018-01-13T11:47:43.122Z,74.10
2018-01-13T11:50:10.751Z,74.00
2018-01-13T11:52:39.128Z,74.50
2018-01-13T11:55:06.819Z,74.70
2018-01-13T11:57:34.435Z,74.80
2018-01-13T12:00:02.008Z,74.40
2018-01-13T12:02:30.371Z,74.20
2018-01-13T12:04:57.942Z,74.20
2018-01-13T12:07:26.514Z,73.80
2018-01-13T12:09:54.941Z,72.90
2018-01-13T12:12:22.610Z,72.90
2018-01-13T12:14:50.131Z,72.90
2018-01-13T12:17:17.766Z,73.40
2018-01-13T12:19:45.344Z,73.30
2018-01-13T12:22:12.880Z,73.00
2018-01-13T12:24:41.249Z,72.60
2018-01-13T12:27:08.806Z,72.70
2018-01-13T12:29:36.364Z,71.90
2018-01-13T12:32:04.186Z,72.20
2018-01-13T12:34:31.747Z,72.60
2018-01-13T12:37:01.560Z,73.20
2018-01-13T12:39:31.572Z,73.60
2018-01-13T12:41:59.954Z,73.60
2018-01-13T12:44:28.002Z,73.50
2018-01-13T12:46:56.923Z,73.20
2018-01-13T12:49:25.220Z,73.20
2018-01-13T12:51:54.014Z,73.10
2018-01-13T12:54:22.493Z,73.20
2018-01-13T12:56:51.368Z,72.70
2018-01-13T12:59:22.243Z,72.80
2018-01-13T13:01:50.182Z,72.70
2018-01-13T13:04:18.509Z,72.60
2018-01-13T13:06:46.942Z,72.40
2018-01-13T13:09:16.379Z,72.80
2018-01-13T13:11:44.362Z,72.80
2018-01-13T13:14:13.062Z,72.00
2018-01-13T13:16:42.484Z,72.00
2018-01-13T13:19:10.569Z,71.70
2018-01-13T13:21:39.177Z,71.40
2018-01-13T13:24:08.071Z,72.60
2018-01-13T13:26:38.226Z,71.90
2018-01-13T13:29:07.802Z,71.90
2018-01-13T13:31:37.798Z,72.00
2018-01-13T13:34:06.932Z,72.20
2018-01-13T13:36:34.977Z,72.30
2018-01-13T13:39:03.172Z,72.70
2018-01-13T13:41:31.768Z,72.60
2018-01-13T13:43:59.874Z,72.50
2018-01-13T13:46:28.090Z,72.10
2018-01-13T13:48:56.989Z,72.00
2018-01-13T13:51:25.059Z,72.00
2018-01-13T13:53:53.039Z,71.80
2018-01-13T13:56:21.410Z,72.10
2018-01-13T13:58:49.655Z,72.20
2018-01-13T14:01:28.592Z,72.40
2018-01-13T14:03:47.740Z,72.50
2018-01-13T14:06:16.873Z,72.40
2018-01-13T14:08:45.048Z,72.40
2018-01-13T14:11:14.416Z,72.00
2018-01-13T14:13:42.447Z,72.00
2018-01-13T14:16:11.502Z,71.60
2018-01-13T14:18:41.452Z,72.30
2018-01-13T14:21:10.553Z,72.60
2018-01-13T14:23:39.449Z,72.60
2018-01-13T14:26:07.281Z,72.10
2018-01-13T14:28:35.412Z,72.40
2018-01-13T14:31:03.740Z,72.30
2018-01-13T14:33:32.212Z,72.00
2018-01-13T14:36:01.045Z,71.40
2018-01-13T14:38:30.090Z,72.10
2018-01-13T14:40:58.926Z,72.20
2018-01-13T14:43:27.040Z,72.20
2018-01-13T14:45:56.288Z,72.60
2018-01-13T14:48:26.282Z,72.00
2018-01-13T14:50:56.333Z,72.70
2018-01-13T14:53:25.502Z,72.70
2018-01-13T14:55:53.885Z,72.40
2018-01-13T14:58:22.374Z,72.10
2018-01-13T15:00:50.888Z,72.30
2018-01-13T15:03:20.347Z,72.10
2018-01-13T15:05:49.543Z,72.10
2018-01-13T15:08:17.742Z,72.70
2018-01-13T15:10:47.216Z,72.70
2018-01-13T15:13:16.897Z,71.60
2018-01-13T15:15:46.388Z,71.40
2018-01-13T15:18:15.308Z,71.70
2018-01-13T15:20:44.589Z,71.80
2018-01-13T15:23:14.858Z,71.70
2018-01-13T15:25:44.370Z,71.20
2018-01-13T15:28:13.264Z,72.00
2018-01-13T15:30:45.854Z,72.10
2018-01-13T15:33:14.994Z,71.50
2018-01-13T15:35:43.814Z,71.30
2018-01-13T15:38:12.178Z,71.30
2018-01-13T15:40:40.045Z,71.10
2018-01-13T15:43:09.126Z,71.10
2018-01-13T15:45:37.022Z,71.10
2018-01-13T15:48:05.508Z,71.40
2018-01-13T15:50:33.987Z,71.60
2018-01-13T15:53:02.949Z,71.90
2018-01-13T15:55:31.348Z,72.20
2018-01-13T15:58:01.321Z,72.20
2018-01-13T16:00:29.275Z,72.30
2018-01-13T16:02:58.364Z,73.00
2018-01-13T16:05:27.390Z,73.00
2018-01-13T16:07:56.475Z,73.10
2018-01-13T16:10:25.240Z,72.60
2018-01-13T16:12:54.931Z,72.80
2018-01-13T16:15:25.112Z,72.20
2018-01-13T16:17:53.452Z,72.10
2018-01-13T16:20:22.211Z,72.30
2018-01-13T16:22:52.463Z,72.60
2018-01-13T16:25:21.327Z,72.60
2018-01-13T16:27:49.529Z,73.40
2018-01-13T16:30:17.763Z,73.10
2018-01-13T16:32:45.991Z,72.80
2018-01-13T16:35:14.039Z,72.40
2018-01-13T16:37:42.728Z,73.10
2018-01-13T16:40:11.016Z,73.20
2018-01-13T16:42:39.368Z,73.40
2018-01-13T16:45:08.866Z,73.50
2018-01-13T16:47:37.910Z,73.40
2018-01-13T16:50:07.262Z,74.00
2018-01-13T16:52:35.270Z,74.10
2018-01-13T16:55:04.671Z,73.90
2018-01-13T16:57:34.904Z,73.70
2018-01-13T17:00:03.924Z,73.50
2018-01-13T17:02:31.910Z,73.50
2018-01-13T17:05:00.252Z,73.40
2018-01-13T17:07:29.994Z,74.30
2018-01-13T17:09:58.607Z,74.30
2018-01-13T17:12:27.005Z,74.90
2018-01-13T17:14:54.909Z,74.30
2018-01-13T17:17:24.212Z,74.10
2018-01-13T17:19:53.395Z,73.90
2018-01-13T17:22:21.867Z,74.10
2018-01-13T17:24:51.223Z,74.40
2018-01-13T17:27:19.366Z,74.70
2018-01-13T17:29:48.503Z,74.80
2018-01-13T17:32:16.951Z,74.70
2018-01-13T17:34:47.398Z,74.10
2018-01-13T17:37:16.124Z,74.10
2018-01-13T17:39:44.855Z,74.30
2018-01-13T17:42:13.568Z,74.40
2018-01-13T17:44:42.077Z,74.30
2018-01-13T17:47:11.359Z,74.30
2018-01-13T17:49:39.314Z,74.20
2018-01-13T17:52:07.718Z,74.60
2018-01-13T17:54:36.003Z,74.60
2018-01-13T17:57:04.988Z,74.40
2018-01-13T17:59:34.515Z,74.50
2018-01-13T18:02:04.948Z,74.30
2018-01-13T18:04:33.216Z,74.30
2018-01-13T18:07:01.033Z,74.30
2018-01-13T18:09:29.409Z,74.20
2018-01-13T18:11:57.969Z,74.10
2018-01-13T18:14:26.195Z,73.90
2018-01-13T18:16:54.227Z,74.40
2018-01-13T18:19:24.547Z,74.50
2018-01-13T18:21:53.035Z,74.50
2018-01-13T18:24:21.252Z,74.20
2018-01-13T18:26:49.421Z,74.30
2018-01-13T18:29:17.995Z,74.00
2018-01-13T18:31:47.379Z,74.30
2018-01-13T18:34:16.921Z,74.30
2018-01-13T18:36:45.357Z,74.10
2018-01-13T18:39:13.336Z,73.80
2018-01-13T18:41:41.532Z,74.90
2018-01-13T18:44:11.211Z,74.90
2018-01-13T18:46:40.180Z,75.20
2018-01-13T18:49:08.348Z,75.10
2018-01-13T18:51:36.333Z,74.70
2018-01-13T18:54:05.173Z,74.60
2018-01-13T18:56:35.192Z,74.50
2018-01-13T18:59:03.262Z,74.80
2018-01-13T19:01:31.766Z,74.80
2018-01-13T19:04:00.829Z,74.30
2018-01-13T19:06:29.100Z,74.40
2018-01-13T19:08:57.862Z,74.90
2018-01-13T19:11:26.529Z,74.40
2018-01-13T19:13:54.258Z,74.30
2018-01-13T19:16:23.046Z,73.90
2018-01-13T19:18:51.857Z,74.00
2018-01-13T19:21:21.057Z,73.50
2018-01-13T19:23:49.214Z,73.40
2018-01-13T19:26:17.570Z,73.50
2018-01-13T19:28:47.814Z,73.90
2018-01-13T19:31:16.670Z,73.10
2018-01-13T19:33:45.437Z,72.80
2018-01-13T19:36:13.612Z,72.90
2018-01-13T19:38:42.277Z,73.10
2018-01-13T19:41:10.273Z,73.00
2018-01-13T19:43:38.877Z,72.50
2018-01-13T19:46:07.201Z,73.00
2018-01-13T19:48:35.136Z,73.10
2018-01-13T19:51:04.477Z,73.30
2018-01-13T19:53:32.997Z,73.10
2018-01-13T19:56:02.242Z,72.90
2018-01-13T19:58:31.584Z,72.90
2018-01-13T20:01:02.397Z,72.90
2018-01-13T20:03:31.575Z,73.10
2018-01-13T20:06:01.272Z,73.10
2018-01-13T20:08:30.772Z,73.60
2018-01-13T20:11:00.287Z,72.60
2018-01-13T20:13:28.952Z,72.60
2018-01-13T20:16:04.141Z,72.50
2018-01-13T20:18:32.733Z,72.10
2018-01-13T20:21:02.033Z,72.10
2018-01-13T20:23:30.303Z,71.90
2018-01-13T20:25:59.317Z,72.00
2018-01-13T20:28:36.755Z,71.80
2018-01-13T20:31:05.868Z,72.40
2018-01-13T20:33:34.488Z,71.70
2018-01-13T20:36:03.731Z,71.60
2018-01-13T20:38:33.030Z,71.70
2018-01-13T20:41:01.300Z,71.50
2018-01-13T20:43:29.258Z,72.10
2018-01-13T20:45:57.320Z,72.20
2018-01-13T20:48:25.322Z,71.80
2018-01-13T20:50:53.251Z,72.00
2018-01-13T20:53:21.223Z,72.10
2018-01-13T20:55:49.977Z,72.10
2018-01-13T20:58:18.032Z,72.10
2018-01-13T21:00:46.398Z,72.10
2018-01-13T21:03:15.218Z,71.80
2018-01-13T21:05:43.604Z,71.60
2018-01-13T21:08:11.911Z,71.70
2018-01-13T21:10:39.881Z,71.90
2018-01-13T21:13:08.369Z,72.10
2018-01-13T21:15:36.783Z,71.60
2018-01-13T21:18:05.072Z,71.30
2018-01-13T21:23:06.292Z,71.20
2018-01-13T21:28:09.974Z,71.30
2018-01-13T21:30:39.355Z,71.50
2018-01-13T21:33:08.329Z,71.50
2018-01-13T21:35:36.034Z,71.80
2018-01-13T21:38:04.272Z,72.00
2018-01-13T21:40:33.907Z,72.00
2018-01-13T21:43:01.977Z,72.40
2018-01-13T21:45:31.010Z,72.60
2018-01-13T21:48:00.579Z,72.70
2018-01-13T21:50:29.137Z,72.70
2018-01-13T21:52:57.377Z,72.70
2018-01-13T21:55:25.666Z,72.90
2018-01-13T21:57:54.803Z,72.60
2018-01-13T22:00:22.998Z,72.60
2018-01-13T22:02:53.831Z,72.60
2018-01-13T22:05:23.013Z,72.70
2018-01-13T22:07:51.213Z,72.70
2018-01-13T22:10:19.777Z,72.50
2018-01-13T22:12:50.420Z,72.60
2018-01-13T22:15:18.881Z,72.40
2018-01-13T22:17:47.882Z,72.60
2018-01-13T22:20:16.004Z,72.80
2018-01-13T22:22:45.082Z,72.60
2018-01-13T22:25:15.059Z,72.70
2018-01-13T22:27:43.963Z,72.80
2018-01-13T22:30:12.880Z,73.10
2018-01-13T22:32:41.769Z,72.70
2018-01-13T22:35:10.247Z,72.70
2018-01-13T22:37:38.794Z,72.40
2018-01-13T22:40:06.821Z,72.40
2018-01-13T22:42:35.157Z,72.60
2018-01-13T22:45:03.995Z,72.20
2018-01-13T22:47:33.049Z,72.20
2018-01-13T22:50:01.823Z,72.20
2018-01-13T22:52:29.941Z,72.60
2018-01-13T22:54:57.936Z,72.70
2018-01-13T22:57:26.932Z,72.20
2018-01-13T22:59:55.288Z,72.50
2018-01-13T23:02:23.244Z,73.00
2018-01-13T23:04:51.652Z,72.60
2018-01-13T23:07:20.162Z,73.00
2018-01-13T23:09:48.616Z,73.20
2018-01-13T23:12:16.814Z,72.60
2018-01-13T23:14:45.083Z,72.50
2018-01-13T23:17:13.407Z,72.00
2018-01-13T23:19:43.628Z,73.30
2018-01-13T23:22:12.238Z,73.40
2018-01-13T23:24:41.529Z,73.30
2018-01-13T23:27:22.358Z,73.90
2018-01-13T23:29:50.758Z,73.90
2018-01-13T23:32:20.113Z,74.00
2018-01-13T23:34:48.553Z,73.90
2018-01-13T23:37:17.291Z,74.50
2018-01-13T23:39:46.118Z,74.40
2018-01-13T23:42:14.105Z,74.90
2018-01-13T23:44:42.465Z,75.40
2018-01-13T23:47:10.896Z,74.30
2018-01-13T23:49:38.972Z,74.30
2018-01-13T23:52:08.019Z,73.90
2018-01-13T23:54:36.301Z,73.00
2018-01-13T23:57:04.242Z,73.70
2018-01-13T23:59:33.200Z,74.00
